sensor_id;sensor_type;location;lat;lon;timestamp;P1;durP1;ratioP1;P2;durP2;ratioP2
8464;SDS011;72380;52.680;13.606;2024-01-15T00:02:06;8.93;;;3.80;;
8464;SDS011;72380;52.680;13.606;2024-01-15T00:04:35;7.77;;;3.70;;
8464;SDS011;72380;52.680;13.606;2024-01-15T00:07:03;4.33;;;3.40;;
8464;SDS011;72380;52.680;13.606;2024-01-15T00:09:30;7.40;;;4.57;;
8464;SDS011;72380;52.680;13.606;2024-01-15T00:11:58;7.03;;;4.10;;
8464;SDS011;72380;52.680;13.606;2024-01-15T00:14:26;6.17;;;3.57;;
8464;SDS011;72380;52.680;13.606;2024-01-15T00:16:55;7.53;;;3.90;;
8464;SDS011;72380;52.680;13.606;2024-01-15T00:19:22;6.23;;;3.73;;
8464;SDS011;72380;52.680;13.606;2024-01-15T00:21:49;5.80;;;4.30;;
8464;SDS011;72380;52.680;13.606;2024-01-15T00:24:17;5.83;;;3.83;;
8464;SDS011;72380;52.680;13.606;2024-01-15T00:26:44;6.80;;;3.17;;
8464;SDS011;72380;52.680;13.606;2024-01-15T00:29:12;5.13;;;3.27;;
8464;SDS011;72380;52.680;13.606;2024-01-15T00:31:39;9.10;;;4.40;;
8464;SDS011;72380;52.680;13.606;2024-01-15T00:34:07;5.63;;;2.90;;
8464;SDS011;72380;52.680;13.606;2024-01-15T00:36:35;3.90;;;2.97;;
8464;SDS011;72380;52.680;13.606;2024-01-15T00:39:02;6.57;;;3.37;;
8464;SDS011;72380;52.680;13.606;2024-01-15T00:41:30;5.27;;;3.40;;
8464;SDS011;72380;52.680;13.606;2024-01-15T00:43:58;7.10;;;3.30;;
8464;SDS011;72380;52.680;13.606;2024-01-15T00:46:25;9.10;;;3.63;;
8464;SDS011;72380;52.680;13.606;2024-01-15T00:48:53;7.57;;;4.53;;
8464;SDS011;72380;52.680;13.606;2024-01-15T00:51:21;5.37;;;3.33;;
8464;SDS011;72380;52.680;13.606;2024-01-15T00:53:49;5.03;;;2.93;;
8464;SDS011;72380;52.680;13.606;2024-01-15T00:56:16;5.77;;;3.67;;
8464;SDS011;72380;52.680;13.606;2024-01-15T00:58:43;6.43;;;3.40;;
8464;SDS011;72380;52.680;13.606;2024-01-15T01:01:10;7.20;;;3.50;;
8464;SDS011;72380;52.680;13.606;2024-01-15T01:03:38;6.37;;;3.43;;
8464;SDS011;72380;52.680;13.606;2024-01-15T01:06:05;4.73;;;3.60;;
8464;SDS011;72380;52.680;13.606;2024-01-15T01:08:33;6.87;;;2.73;;
8464;SDS011;72380;52.680;13.606;2024-01-15T01:11:01;5.93;;;3.20;;
8464;SDS011;72380;52.680;13.606;2024-01-15T01:13:28;5.77;;;3.43;;
8464;SDS011;72380;52.680;13.606;2024-01-15T01:15:55;5.50;;;3.73;;
8464;SDS011;72380;52.680;13.606;2024-01-15T01:18:23;5.13;;;3.47;;
8464;SDS011;72380;52.680;13.606;2024-01-15T01:20:50;6.13;;;3.70;;
8464;SDS011;72380;52.680;13.606;2024-01-15T01:23:17;4.60;;;3.37;;
8464;SDS011;72380;52.680;13.606;2024-01-15T01:25:46;6.33;;;3.30;;
8464;SDS011;72380;52.680;13.606;2024-01-15T01:28:13;4.17;;;2.57;;
8464;SDS011;72380;52.680;13.606;2024-01-15T01:30:41;6.80;;;2.93;;
8464;SDS011;72380;52.680;13.606;2024-01-15T01:33:08;7.40;;;3.00;;
8464;SDS011;72380;52.680;13.606;2024-01-15T01:35:35;7.67;;;2.73;;
8464;SDS011;72380;52.680;13.606;2024-01-15T01:38:03;6.50;;;3.43;;
8464;SDS011;72380;52.680;13.606;2024-01-15T01:40:30;5.90;;;3.10;;
8464;SDS011;72380;52.680;13.606;2024-01-15T01:42:59;4.30;;;2.87;;
8464;SDS011;72380;52.680;13.606;2024-01-15T01:45:25;4.67;;;2.80;;
8464;SDS011;72380;52.680;13.606;2024-01-15T01:47:52;2.90;;;2.20;;
8464;SDS011;72380;52.680;13.606;2024-01-15T01:50:20;5.07;;;2.43;;
8464;SDS011;72380;52.680;13.606;2024-01-15T01:52:47;7.20;;;4.03;;
8464;SDS011;72380;52.680;13.606;2024-01-15T01:55:15;8.20;;;3.43;;
8464;SDS011;72380;52.680;13.606;2024-01-15T01:57:42;7.90;;;2.73;;
8464;SDS011;72380;52.680;13.606;2024-01-15T02:00:12;4.00;;;2.50;;
8464;SDS011;72380;52.680;13.606;2024-01-15T02:02:40;12.33;;;2.73;;
8464;SDS011;72380;52.680;13.606;2024-01-15T02:05:07;7.10;;;2.87;;
8464;SDS011;72380;52.680;13.606;2024-01-15T02:07:35;5.77;;;2.33;;
8464;SDS011;72380;52.680;13.606;2024-01-15T02:10:03;3.93;;;2.70;;
8464;SDS011;72380;52.680;13.606;2024-01-15T02:12:31;1.83;;;1.73;;
8464;SDS011;72380;52.680;13.606;2024-01-15T02:14:58;4.80;;;2.03;;
8464;SDS011;72380;52.680;13.606;2024-01-15T02:17:27;9.13;;;2.50;;
8464;SDS011;72380;52.680;13.606;2024-01-15T02:19:54;9.93;;;3.33;;
8464;SDS011;72380;52.680;13.606;2024-01-15T02:22:22;4.27;;;2.70;;
8464;SDS011;72380;52.680;13.606;2024-01-15T02:24:50;3.67;;;1.80;;
8464;SDS011;72380;52.680;13.606;2024-01-15T02:27:18;2.60;;;2.40;;
8464;SDS011;72380;52.680;13.606;2024-01-15T02:29:45;4.23;;;2.20;;
8464;SDS011;72380;52.680;13.606;2024-01-15T02:32:13;4.37;;;2.60;;
8464;SDS011;72380;52.680;13.606;2024-01-15T02:34:40;5.93;;;2.50;;
8464;SDS011;72380;52.680;13.606;2024-01-15T02:37:08;6.07;;;2.30;;
8464;SDS011;72380;52.680;13.606;2024-01-15T02:39:35;3.37;;;2.47;;
8464;SDS011;72380;52.680;13.606;2024-01-15T02:42:04;5.37;;;2.97;;
8464;SDS011;72380;52.680;13.606;2024-01-15T02:44:31;8.50;;;2.53;;
8464;SDS011;72380;52.680;13.606;2024-01-15T02:46:58;4.33;;;2.33;;
8464;SDS011;72380;52.680;13.606;2024-01-15T02:49:26;4.60;;;2.73;;
8464;SDS011;72380;52.680;13.606;2024-01-15T02:51:53;5.33;;;2.87;;
8464;SDS011;72380;52.680;13.606;2024-01-15T02:54:20;3.07;;;2.50;;
8464;SDS011;72380;52.680;13.606;2024-01-15T02:56:47;3.67;;;2.63;;
8464;SDS011;72380;52.680;13.606;2024-01-15T02:59:16;4.90;;;2.70;;
8464;SDS011;72380;52.680;13.606;2024-01-15T03:01:43;3.93;;;2.07;;
8464;SDS011;72380;52.680;13.606;2024-01-15T03:04:10;3.90;;;2.50;;
8464;SDS011;72380;52.680;13.606;2024-01-15T03:06:38;3.20;;;2.37;;
8464;SDS011;72380;52.680;13.606;2024-01-15T03:09:05;4.73;;;2.30;;
8464;SDS011;72380;52.680;13.606;2024-01-15T03:11:36;7.20;;;2.13;;
8464;SDS011;72380;52.680;13.606;2024-01-15T03:14:03;3.40;;;2.43;;
8464;SDS011;72380;52.680;13.606;2024-01-15T03:16:32;8.47;;;2.90;;
8464;SDS011;72380;52.680;13.606;2024-01-15T03:19:00;8.43;;;2.27;;
8464;SDS011;72380;52.680;13.606;2024-01-15T03:21:27;2.93;;;2.20;;
8464;SDS011;72380;52.680;13.606;2024-01-15T03:23:54;3.80;;;1.77;;
8464;SDS011;72380;52.680;13.606;2024-01-15T03:26:21;3.67;;;2.47;;
8464;SDS011;72380;52.680;13.606;2024-01-15T03:28:49;3.00;;;1.73;;
8464;SDS011;72380;52.680;13.606;2024-01-15T03:31:17;2.73;;;1.90;;
8464;SDS011;72380;52.680;13.606;2024-01-15T03:33:45;3.47;;;2.03;;
8464;SDS011;72380;52.680;13.606;2024-01-15T03:36:12;2.83;;;1.80;;
8464;SDS011;72380;52.680;13.606;2024-01-15T03:38:40;4.13;;;2.23;;
8464;SDS011;72380;52.680;13.606;2024-01-15T03:41:08;2.53;;;2.00;;
8464;SDS011;72380;52.680;13.606;2024-01-15T03:43:35;6.57;;;1.80;;
8464;SDS011;72380;52.680;13.606;2024-01-15T03:46:03;5.83;;;1.73;;
8464;SDS011;72380;52.680;13.606;2024-01-15T03:48:30;3.90;;;1.97;;
8464;SDS011;72380;52.680;13.606;2024-01-15T03:50:59;3.30;;;2.10;;
8464;SDS011;72380;52.680;13.606;2024-01-15T03:53:26;2.77;;;1.77;;
8464;SDS011;72380;52.680;13.606;2024-01-15T03:55:54;4.83;;;1.60;;
8464;SDS011;72380;52.680;13.606;2024-01-15T03:58:21;3.90;;;1.83;;
8464;SDS011;72380;52.680;13.606;2024-01-15T04:00:48;3.93;;;2.17;;
8464;SDS011;72380;52.680;13.606;2024-01-15T04:03:15;4.40;;;2.07;;
8464;SDS011;72380;52.680;13.606;2024-01-15T04:05:43;11.00;;;2.33;;
8464;SDS011;72380;52.680;13.606;2024-01-15T04:08:11;2.90;;;1.73;;
8464;SDS011;72380;52.680;13.606;2024-01-15T04:10:39;2.50;;;2.30;;
8464;SDS011;72380;52.680;13.606;2024-01-15T04:13:06;6.20;;;1.83;;
8464;SDS011;72380;52.680;13.606;2024-01-15T04:15:34;4.53;;;1.80;;
8464;SDS011;72380;52.680;13.606;2024-01-15T04:18:02;3.33;;;1.83;;
8464;SDS011;72380;52.680;13.606;2024-01-15T04:20:29;7.50;;;2.07;;
8464;SDS011;72380;52.680;13.606;2024-01-15T04:22:56;4.83;;;1.70;;
8464;SDS011;72380;52.680;13.606;2024-01-15T04:25:25;2.87;;;2.00;;
8464;SDS011;72380;52.680;13.606;2024-01-15T04:27:52;2.70;;;2.10;;
8464;SDS011;72380;52.680;13.606;2024-01-15T04:30:19;10.20;;;1.97;;
8464;SDS011;72380;52.680;13.606;2024-01-15T04:32:47;6.20;;;3.10;;
8464;SDS011;72380;52.680;13.606;2024-01-15T04:35:14;4.03;;;2.00;;
8464;SDS011;72380;52.680;13.606;2024-01-15T04:37:41;5.00;;;1.83;;
8464;SDS011;72380;52.680;13.606;2024-01-15T04:40:09;3.87;;;1.67;;
8464;SDS011;72380;52.680;13.606;2024-01-15T04:42:38;3.83;;;2.40;;
8464;SDS011;72380;52.680;13.606;2024-01-15T04:45:05;2.10;;;1.73;;
8464;SDS011;72380;52.680;13.606;2024-01-15T04:47:32;1.53;;;1.43;;
8464;SDS011;72380;52.680;13.606;2024-01-15T04:50:02;2.13;;;1.57;;
8464;SDS011;72380;52.680;13.606;2024-01-15T04:52:29;5.53;;;1.70;;
8464;SDS011;72380;52.680;13.606;2024-01-15T04:54:56;4.20;;;2.13;;
8464;SDS011;72380;52.680;13.606;2024-01-15T04:57:24;1.40;;;1.30;;
8464;SDS011;72380;52.680;13.606;2024-01-15T04:59:52;4.17;;;1.20;;
8464;SDS011;72380;52.680;13.606;2024-01-15T05:02:20;3.20;;;1.43;;
8464;SDS011;72380;52.680;13.606;2024-01-15T05:04:47;3.27;;;1.47;;
8464;SDS011;72380;52.680;13.606;2024-01-15T05:07:14;7.07;;;2.07;;
8464;SDS011;72380;52.680;13.606;2024-01-15T05:09:42;1.93;;;1.10;;
8464;SDS011;72380;52.680;13.606;2024-01-15T05:12:09;1.60;;;1.50;;
8464;SDS011;72380;52.680;13.606;2024-01-15T05:14:36;0.90;;;0.90;;
8464;SDS011;72380;52.680;13.606;2024-01-15T05:17:05;1.00;;;0.93;;
8464;SDS011;72380;52.680;13.606;2024-01-15T05:19:32;3.50;;;1.67;;
8464;SDS011;72380;52.680;13.606;2024-01-15T05:21:59;5.77;;;1.63;;
8464;SDS011;72380;52.680;13.606;2024-01-15T05:24:27;6.40;;;1.67;;
8464;SDS011;72380;52.680;13.606;2024-01-15T05:26:54;1.60;;;1.07;;
8464;SDS011;72380;52.680;13.606;2024-01-15T05:29:21;5.60;;;1.50;;
8464;SDS011;72380;52.680;13.606;2024-01-15T05:31:48;1.23;;;0.93;;
8464;SDS011;72380;52.680;13.606;2024-01-15T05:34:17;1.17;;;1.07;;
8464;SDS011;72380;52.680;13.606;2024-01-15T05:36:44;1.63;;;1.07;;
8464;SDS011;72380;52.680;13.606;2024-01-15T05:39:13;5.07;;;1.47;;
8464;SDS011;72380;52.680;13.606;2024-01-15T05:41:40;1.03;;;1.00;;
8464;SDS011;72380;52.680;13.606;2024-01-15T05:44:07;5.10;;;1.73;;
8464;SDS011;72380;52.680;13.606;2024-01-15T05:46:35;13.10;;;1.67;;
8464;SDS011;72380;52.680;13.606;2024-01-15T05:49:02;3.50;;;1.53;;
8464;SDS011;72380;52.680;13.606;2024-01-15T05:51:31;4.23;;;1.47;;
8464;SDS011;72380;52.680;13.606;2024-01-15T05:53:58;1.83;;;0.80;;
8464;SDS011;72380;52.680;13.606;2024-01-15T05:56:25;3.70;;;1.07;;
8464;SDS011;72380;52.680;13.606;2024-01-15T05:58:53;1.10;;;0.93;;
8464;SDS011;72380;52.680;13.606;2024-01-15T06:01:20;9.73;;;1.63;;
8464;SDS011;72380;52.680;13.606;2024-01-15T06:03:47;3.93;;;1.30;;
8464;SDS011;72380;52.680;13.606;2024-01-15T06:06:14;1.53;;;1.43;;
8464;SDS011;72380;52.680;13.606;2024-01-15T06:08:43;2.10;;;1.30;;
8464;SDS011;72380;52.680;13.606;2024-01-15T06:11:10;1.90;;;0.80;;
8464;SDS011;72380;52.680;13.606;2024-01-15T06:13:37;0.80;;;0.80;;
8464;SDS011;72380;52.680;13.606;2024-01-15T06:16:11;0.53;;;0.53;;
8464;SDS011;72380;52.680;13.606;2024-01-15T06:18:38;3.33;;;1.47;;
8464;SDS011;72380;52.680;13.606;2024-01-15T06:21:06;0.77;;;0.67;;
8464;SDS011;72380;52.680;13.606;2024-01-15T06:23:36;1.43;;;1.10;;
8464;SDS011;72380;52.680;13.606;2024-01-15T06:26:04;1.60;;;0.70;;
8464;SDS011;72380;52.680;13.606;2024-01-15T06:28:32;2.80;;;0.80;;
8464;SDS011;72380;52.680;13.606;2024-01-15T06:30:59;3.10;;;0.67;;
8464;SDS011;72380;52.680;13.606;2024-01-15T06:33:26;1.43;;;0.87;;
8464;SDS011;72380;52.680;13.606;2024-01-15T06:35:54;2.40;;;0.87;;
8464;SDS011;72380;52.680;13.606;2024-01-15T06:38:21;0.50;;;0.50;;
8464;SDS011;72380;52.680;13.606;2024-01-15T06:40:50;1.93;;;0.67;;
8464;SDS011;72380;52.680;13.606;2024-01-15T06:43:19;1.50;;;1.27;;
8464;SDS011;72380;52.680;13.606;2024-01-15T06:45:46;5.20;;;0.60;;
8464;SDS011;72380;52.680;13.606;2024-01-15T06:48:14;2.13;;;1.23;;
8464;SDS011;72380;52.680;13.606;2024-01-15T06:50:41;0.90;;;0.90;;
8464;SDS011;72380;52.680;13.606;2024-01-15T06:53:09;4.00;;;1.50;;
8464;SDS011;72380;52.680;13.606;2024-01-15T06:55:37;0.97;;;0.67;;
8464;SDS011;72380;52.680;13.606;2024-01-15T06:58:05;10.27;;;1.13;;
8464;SDS011;72380;52.680;13.606;2024-01-15T07:00:33;3.03;;;1.73;;
8464;SDS011;72380;52.680;13.606;2024-01-15T07:03:00;2.37;;;1.30;;
8464;SDS011;72380;52.680;13.606;2024-01-15T07:05:28;1.80;;;0.67;;
8464;SDS011;72380;52.680;13.606;2024-01-15T07:07:55;8.90;;;0.97;;
8464;SDS011;72380;52.680;13.606;2024-01-15T07:10:23;2.53;;;0.93;;
8464;SDS011;72380;52.680;13.606;2024-01-15T07:12:51;4.23;;;0.70;;
8464;SDS011;72380;52.680;13.606;2024-01-15T07:15:18;0.67;;;0.67;;
8464;SDS011;72380;52.680;13.606;2024-01-15T07:17:47;2.77;;;0.70;;
8464;SDS011;72380;52.680;13.606;2024-01-15T07:20:14;2.03;;;0.73;;
8464;SDS011;72380;52.680;13.606;2024-01-15T07:22:44;4.10;;;1.67;;
8464;SDS011;72380;52.680;13.606;2024-01-15T07:25:12;0.63;;;0.63;;
8464;SDS011;72380;52.680;13.606;2024-01-15T07:27:39;5.70;;;0.87;;
8464;SDS011;72380;52.680;13.606;2024-01-15T07:30:09;2.20;;;0.90;;
8464;SDS011;72380;52.680;13.606;2024-01-15T07:32:37;2.77;;;1.53;;
8464;SDS011;72380;52.680;13.606;2024-01-15T07:35:07;3.70;;;0.80;;
8464;SDS011;72380;52.680;13.606;2024-01-15T07:37:35;17.43;;;1.50;;
8464;SDS011;72380;52.680;13.606;2024-01-15T07:40:03;2.77;;;1.20;;
8464;SDS011;72380;52.680;13.606;2024-01-15T07:42:31;6.10;;;1.20;;
8464;SDS011;72380;52.680;13.606;2024-01-15T07:44:59;1.57;;;1.33;;
8464;SDS011;72380;52.680;13.606;2024-01-15T07:47:27;1.57;;;1.43;;
8464;SDS011;72380;52.680;13.606;2024-01-15T07:49:54;1.87;;;0.63;;
8464;SDS011;72380;52.680;13.606;2024-01-15T07:52:23;5.43;;;1.90;;
8464;SDS011;72380;52.680;13.606;2024-01-15T07:54:50;6.20;;;1.13;;
8464;SDS011;72380;52.680;13.606;2024-01-15T07:57:17;9.53;;;1.13;;
8464;SDS011;72380;52.680;13.606;2024-01-15T07:59:45;5.13;;;1.67;;
8464;SDS011;72380;52.680;13.606;2024-01-15T08:02:12;1.60;;;1.10;;
8464;SDS011;72380;52.680;13.606;2024-01-15T08:04:39;1.77;;;0.80;;
8464;SDS011;72380;52.680;13.606;2024-01-15T08:07:06;5.53;;;3.50;;
8464;SDS011;72380;52.680;13.606;2024-01-15T08:09:35;5.23;;;1.20;;
8464;SDS011;72380;52.680;13.606;2024-01-15T08:12:02;3.10;;;1.10;;
8464;SDS011;72380;52.680;13.606;2024-01-15T08:14:31;2.23;;;1.70;;
8464;SDS011;72380;52.680;13.606;2024-01-15T08:16:58;0.87;;;0.87;;
8464;SDS011;72380;52.680;13.606;2024-01-15T08:19:26;5.53;;;1.03;;
8464;SDS011;72380;52.680;13.606;2024-01-15T08:21:54;4.87;;;1.43;;
8464;SDS011;72380;52.680;13.606;2024-01-15T08:24:21;3.23;;;1.47;;
8464;SDS011;72380;52.680;13.606;2024-01-15T08:26:49;2.30;;;1.00;;
8464;SDS011;72380;52.680;13.606;2024-01-15T08:29:17;6.53;;;1.40;;
8464;SDS011;72380;52.680;13.606;2024-01-15T08:31:46;6.80;;;1.60;;
8464;SDS011;72380;52.680;13.606;2024-01-15T08:34:13;6.20;;;1.17;;
8464;SDS011;72380;52.680;13.606;2024-01-15T08:36:40;4.33;;;0.97;;
8464;SDS011;72380;52.680;13.606;2024-01-15T08:39:08;2.30;;;0.83;;
8464;SDS011;72380;52.680;13.606;2024-01-15T08:41:35;10.53;;;1.70;;
8464;SDS011;72380;52.680;13.606;2024-01-15T08:44:04;3.77;;;1.17;;
8464;SDS011;72380;52.680;13.606;2024-01-15T08:46:31;2.13;;;1.73;;
8464;SDS011;72380;52.680;13.606;2024-01-15T08:48:58;0.90;;;0.90;;
8464;SDS011;72380;52.680;13.606;2024-01-15T08:51:26;3.30;;;1.33;;
8464;SDS011;72380;52.680;13.606;2024-01-15T08:53:53;2.70;;;1.00;;
8464;SDS011;72380;52.680;13.606;2024-01-15T08:56:20;4.13;;;1.03;;
8464;SDS011;72380;52.680;13.606;2024-01-15T08:58:47;2.30;;;0.77;;
8464;SDS011;72380;52.680;13.606;2024-01-15T09:01:16;4.07;;;0.77;;
8464;SDS011;72380;52.680;13.606;2024-01-15T09:03:44;2.70;;;0.80;;
8464;SDS011;72380;52.680;13.606;2024-01-15T09:06:13;2.20;;;0.70;;
8464;SDS011;72380;52.680;13.606;2024-01-15T09:08:41;0.97;;;0.77;;
8464;SDS011;72380;52.680;13.606;2024-01-15T09:11:08;2.93;;;1.43;;
8464;SDS011;72380;52.680;13.606;2024-01-15T09:13:37;0.60;;;0.50;;
8464;SDS011;72380;52.680;13.606;2024-01-15T09:16:06;2.10;;;0.97;;
8464;SDS011;72380;52.680;13.606;2024-01-15T09:18:34;1.60;;;0.70;;
8464;SDS011;72380;52.680;13.606;2024-01-15T09:21:03;0.53;;;0.53;;
8464;SDS011;72380;52.680;13.606;2024-01-15T09:23:30;2.40;;;0.80;;
8464;SDS011;72380;52.680;13.606;2024-01-15T09:25:58;2.97;;;1.10;;
8464;SDS011;72380;52.680;13.606;2024-01-15T09:28:25;2.17;;;1.07;;
8464;SDS011;72380;52.680;13.606;2024-01-15T09:30:52;1.63;;;0.40;;
8464;SDS011;72380;52.680;13.606;2024-01-15T09:33:19;1.20;;;0.90;;
8464;SDS011;72380;52.680;13.606;2024-01-15T09:35:48;0.50;;;0.50;;
8464;SDS011;72380;52.680;13.606;2024-01-15T09:38:15;1.77;;;0.63;;
8464;SDS011;72380;52.680;13.606;2024-01-15T09:40:43;6.00;;;1.17;;
8464;SDS011;72380;52.680;13.606;2024-01-15T09:43:12;0.60;;;0.60;;
8464;SDS011;72380;52.680;13.606;2024-01-15T09:45:41;6.23;;;1.17;;
8464;SDS011;72380;52.680;13.606;2024-01-15T09:48:08;4.13;;;0.70;;
8464;SDS011;72380;52.680;13.606;2024-01-15T09:50:36;1.53;;;1.03;;
8464;SDS011;72380;52.680;13.606;2024-01-15T09:53:05;1.63;;;1.03;;
8464;SDS011;72380;52.680;13.606;2024-01-15T09:55:32;0.80;;;0.80;;
8464;SDS011;72380;52.680;13.606;2024-01-15T09:58:00;4.80;;;0.90;;
8464;SDS011;72380;52.680;13.606;2024-01-15T10:00:28;6.70;;;1.03;;
8464;SDS011;72380;52.680;13.606;2024-01-15T10:02:56;1.67;;;1.57;;
8464;SDS011;72380;52.680;13.606;2024-01-15T10:05:25;5.80;;;1.17;;
8464;SDS011;72380;52.680;13.606;2024-01-15T10:07:53;0.77;;;0.53;;
8464;SDS011;72380;52.680;13.606;2024-01-15T10:10:22;5.10;;;1.70;;
8464;SDS011;72380;52.680;13.606;2024-01-15T10:12:49;2.37;;;1.37;;
8464;SDS011;72380;52.680;13.606;2024-01-15T10:15:16;1.70;;;1.03;;
8464;SDS011;72380;52.680;13.606;2024-01-15T10:17:44;2.10;;;1.07;;
8464;SDS011;72380;52.680;13.606;2024-01-15T10:20:12;0.77;;;0.77;;
8464;SDS011;72380;52.680;13.606;2024-01-15T10:22:40;2.67;;;0.97;;
8464;SDS011;72380;52.680;13.606;2024-01-15T10:25:09;0.60;;;0.60;;
8464;SDS011;72380;52.680;13.606;2024-01-15T10:27:38;1.37;;;1.27;;
8464;SDS011;72380;52.680;13.606;2024-01-15T10:30:06;2.13;;;1.23;;
8464;SDS011;72380;52.680;13.606;2024-01-15T10:32:34;3.67;;;1.80;;
8464;SDS011;72380;52.680;13.606;2024-01-15T10:35:01;7.67;;;1.10;;
8464;SDS011;72380;52.680;13.606;2024-01-15T10:37:31;1.20;;;0.87;;
8464;SDS011;72380;52.680;13.606;2024-01-15T10:40:00;1.23;;;0.70;;
8464;SDS011;72380;52.680;13.606;2024-01-15T10:42:30;5.77;;;1.23;;
8464;SDS011;72380;52.680;13.606;2024-01-15T10:44:59;4.83;;;0.60;;
8464;SDS011;72380;52.680;13.606;2024-01-15T10:47:26;0.60;;;0.60;;
8464;SDS011;72380;52.680;13.606;2024-01-15T10:49:53;5.37;;;1.53;;
8464;SDS011;72380;52.680;13.606;2024-01-15T10:52:21;0.63;;;0.60;;
8464;SDS011;72380;52.680;13.606;2024-01-15T10:54:48;0.53;;;0.47;;
8464;SDS011;72380;52.680;13.606;2024-01-15T10:57:16;1.37;;;0.93;;
8464;SDS011;72380;52.680;13.606;2024-01-15T10:59:44;3.93;;;0.60;;
8464;SDS011;72380;52.680;13.606;2024-01-15T11:02:13;0.50;;;0.47;;
8464;SDS011;72380;52.680;13.606;2024-01-15T11:04:41;2.47;;;1.07;;
8464;SDS011;72380;52.680;13.606;2024-01-15T11:07:08;1.60;;;0.87;;
8464;SDS011;72380;52.680;13.606;2024-01-15T11:09:37;1.03;;;0.93;;
8464;SDS011;72380;52.680;13.606;2024-01-15T11:12:09;1.27;;;1.17;;
8464;SDS011;72380;52.680;13.606;2024-01-15T11:14:40;8.87;;;1.40;;
8464;SDS011;72380;52.680;13.606;2024-01-15T11:17:09;2.37;;;0.60;;
8464;SDS011;72380;52.680;13.606;2024-01-15T11:19:38;1.07;;;0.40;;
8464;SDS011;72380;52.680;13.606;2024-01-15T11:22:10;3.07;;;1.33;;
8464;SDS011;72380;52.680;13.606;2024-01-15T11:24:38;1.80;;;1.37;;
8464;SDS011;72380;52.680;13.606;2024-01-15T11:27:06;0.47;;;0.47;;
8464;SDS011;72380;52.680;13.606;2024-01-15T11:29:34;0.63;;;0.60;;
8464;SDS011;72380;52.680;13.606;2024-01-15T11:32:02;2.80;;;1.33;;
8464;SDS011;72380;52.680;13.606;2024-01-15T11:37:18;0.70;;;0.70;;
8464;SDS011;72380;52.680;13.606;2024-01-15T11:39:45;0.50;;;0.50;;
8464;SDS011;72380;52.680;13.606;2024-01-15T11:42:13;0.63;;;0.63;;
8464;SDS011;72380;52.680;13.606;2024-01-15T11:44:41;0.30;;;0.30;;
8464;SDS011;72380;52.680;13.606;2024-01-15T11:47:10;0.63;;;0.50;;
8464;SDS011;72380;52.680;13.606;2024-01-15T11:49:46;0.40;;;0.40;;
8464;SDS011;72380;52.680;13.606;2024-01-15T11:52:18;1.17;;;0.43;;
8464;SDS011;72380;52.680;13.606;2024-01-15T11:54:48;0.30;;;0.30;;
8464;SDS011;72380;52.680;13.606;2024-01-15T11:57:18;0.30;;;0.30;;
8464;SDS011;72380;52.680;13.606;2024-01-15T11:59:49;0.50;;;0.50;;
8464;SDS011;72380;52.680;13.606;2024-01-15T12:02:16;0.53;;;0.53;;
8464;SDS011;72380;52.680;13.606;2024-01-15T12:04:43;0.30;;;0.30;;
8464;SDS011;72380;52.680;13.606;2024-01-15T12:07:11;1.20;;;0.93;;
8464;SDS011;72380;52.680;13.606;2024-01-15T12:09:43;1.20;;;1.07;;
8464;SDS011;72380;52.680;13.606;2024-01-15T12:12:11;0.30;;;0.30;;
8464;SDS011;72380;52.680;13.606;2024-01-15T12:14:41;5.03;;;2.07;;
8464;SDS011;72380;52.680;13.606;2024-01-15T12:17:11;2.03;;;0.43;;
8464;SDS011;72380;52.680;13.606;2024-01-15T12:19:38;1.83;;;0.30;;
8464;SDS011;72380;52.680;13.606;2024-01-15T12:22:06;0.60;;;0.60;;
8464;SDS011;72380;52.680;13.606;2024-01-15T12:24:33;0.30;;;0.30;;
8464;SDS011;72380;52.680;13.606;2024-01-15T12:27:02;0.50;;;0.50;;
8464;SDS011;72380;52.680;13.606;2024-01-15T12:29:29;0.40;;;0.40;;
8464;SDS011;72380;52.680;13.606;2024-01-15T12:31:57;0.40;;;0.40;;
8464;SDS011;72380;52.680;13.606;2024-01-15T12:34:28;1.30;;;0.30;;
8464;SDS011;72380;52.680;13.606;2024-01-15T12:36:56;0.40;;;0.40;;
8464;SDS011;72380;52.680;13.606;2024-01-15T12:39:24;0.77;;;0.57;;
8464;SDS011;72380;52.680;13.606;2024-01-15T12:41:51;0.93;;;0.70;;
8464;SDS011;72380;52.680;13.606;2024-01-15T12:44:20;2.00;;;0.60;;
8464;SDS011;72380;52.680;13.606;2024-01-15T12:46:47;0.30;;;0.30;;
8464;SDS011;72380;52.680;13.606;2024-01-15T12:49:15;1.07;;;0.47;;
8464;SDS011;72380;52.680;13.606;2024-01-15T12:51:42;2.27;;;1.07;;
8464;SDS011;72380;52.680;13.606;2024-01-15T12:54:09;3.23;;;0.70;;
8464;SDS011;72380;52.680;13.606;2024-01-15T12:56:37;0.37;;;0.37;;
8464;SDS011;72380;52.680;13.606;2024-01-15T12:59:04;0.40;;;0.40;;
8464;SDS011;72380;52.680;13.606;2024-01-15T13:01:33;0.50;;;0.50;;
8464;SDS011;72380;52.680;13.606;2024-01-15T13:04:01;3.03;;;0.63;;
8464;SDS011;72380;52.680;13.606;2024-01-15T13:06:28;0.63;;;0.57;;
8464;SDS011;72380;52.680;13.606;2024-01-15T13:08:56;0.57;;;0.57;;
8464;SDS011;72380;52.680;13.606;2024-01-15T13:11:23;0.30;;;0.30;;
8464;SDS011;72380;52.680;13.606;2024-01-15T13:13:51;0.30;;;0.30;;
8464;SDS011;72380;52.680;13.606;2024-01-15T13:16:18;0.47;;;0.47;;
8464;SDS011;72380;52.680;13.606;2024-01-15T13:18:47;0.87;;;0.60;;
8464;SDS011;72380;52.680;13.606;2024-01-15T13:21:15;0.67;;;0.67;;
8464;SDS011;72380;52.680;13.606;2024-01-15T13:23:42;0.37;;;0.37;;
8464;SDS011;72380;52.680;13.606;2024-01-15T13:26:09;3.33;;;0.50;;
8464;SDS011;72380;52.680;13.606;2024-01-15T13:28:37;0.77;;;0.67;;
8464;SDS011;72380;52.680;13.606;2024-01-15T13:31:05;0.40;;;0.40;;
8464;SDS011;72380;52.680;13.606;2024-01-15T13:33:33;0.40;;;0.40;;
8464;SDS011;72380;52.680;13.606;2024-01-15T13:36:02;0.57;;;0.57;;
8464;SDS011;72380;52.680;13.606;2024-01-15T13:38:33;3.10;;;0.60;;
8464;SDS011;72380;52.680;13.606;2024-01-15T13:41:03;0.40;;;0.40;;
8464;SDS011;72380;52.680;13.606;2024-01-15T13:43:30;5.53;;;0.73;;
8464;SDS011;72380;52.680;13.606;2024-01-15T13:45:58;0.33;;;0.33;;
8464;SDS011;72380;52.680;13.606;2024-01-15T13:48:25;0.57;;;0.57;;
8464;SDS011;72380;52.680;13.606;2024-01-15T13:50:53;0.60;;;0.60;;
8464;SDS011;72380;52.680;13.606;2024-01-15T13:53:21;0.90;;;0.60;;
8464;SDS011;72380;52.680;13.606;2024-01-15T13:55:48;0.53;;;0.53;;
8464;SDS011;72380;52.680;13.606;2024-01-15T13:58:16;0.50;;;0.50;;
8464;SDS011;72380;52.680;13.606;2024-01-15T14:00:43;1.67;;;0.50;;
8464;SDS011;72380;52.680;13.606;2024-01-15T14:03:11;0.60;;;0.60;;
8464;SDS011;72380;52.680;13.606;2024-01-15T14:05:38;0.40;;;0.40;;
8464;SDS011;72380;52.680;13.606;2024-01-15T14:08:05;0.60;;;0.60;;
8464;SDS011;72380;52.680;13.606;2024-01-15T14:10:34;1.60;;;0.60;;
8464;SDS011;72380;52.680;13.606;2024-01-15T14:13:02;0.43;;;0.43;;
8464;SDS011;72380;52.680;13.606;2024-01-15T14:15:30;3.03;;;0.90;;
8464;SDS011;72380;52.680;13.606;2024-01-15T14:17:57;0.30;;;0.30;;
8464;SDS011;72380;52.680;13.606;2024-01-15T14:20:26;4.03;;;0.83;;
8464;SDS011;72380;52.680;13.606;2024-01-15T14:22:53;2.90;;;0.53;;
8464;SDS011;72380;52.680;13.606;2024-01-15T14:25:20;0.53;;;0.53;;
8464;SDS011;72380;52.680;13.606;2024-01-15T14:27:50;0.60;;;0.60;;
8464;SDS011;72380;52.680;13.606;2024-01-15T14:30:18;0.80;;;0.50;;
8464;SDS011;72380;52.680;13.606;2024-01-15T14:32:45;3.70;;;0.83;;
8464;SDS011;72380;52.680;13.606;2024-01-15T14:35:12;3.93;;;1.03;;
8464;SDS011;72380;52.680;13.606;2024-01-15T14:37:40;1.90;;;1.50;;
8464;SDS011;72380;52.680;13.606;2024-01-15T14:40:07;1.80;;;0.93;;
8464;SDS011;72380;52.680;13.606;2024-01-15T14:42:35;0.63;;;0.40;;
8464;SDS011;72380;52.680;13.606;2024-01-15T14:45:04;0.47;;;0.47;;
8464;SDS011;72380;52.680;13.606;2024-01-15T14:47:36;2.00;;;0.70;;
8464;SDS011;72380;52.680;13.606;2024-01-15T14:50:04;1.10;;;1.00;;
8464;SDS011;72380;52.680;13.606;2024-01-15T14:52:32;0.43;;;0.43;;
8464;SDS011;72380;52.680;13.606;2024-01-15T14:54:59;6.47;;;1.00;;